createdAt,value
2023-04-09T00:00:08.339Z,9.00
2023-04-09T00:02:36.774Z,8.27
2023-04-09T00:05:06.464Z,9.80
2023-04-09T00:07:34.822Z,10.90
2023-04-09T00:10:03.187Z,9.23
2023-04-09T00:12:31.548Z,9.45
2023-04-09T00:14:59.946Z,9.63
2023-04-09T00:17:29.611Z,11.18
2023-04-09T00:19:57.960Z,9.48
2023-04-09T00:22:26.357Z,7.35
2023-04-09T00:24:54.700Z,11.48
2023-04-09T00:27:23.085Z,8.38
2023-04-09T00:29:51.426Z,8.45
2023-04-09T00:32:20.084Z,11.48
2023-04-09T00:34:50.172Z,9.38
2023-04-09T00:37:18.515Z,9.65
2023-04-09T00:39:47.728Z,9.50
2023-04-09T00:42:16.608Z,9.18
2023-04-09T00:44:45.259Z,8.10
2023-04-09T00:47:13.638Z,8.10
2023-04-09T00:49:41.958Z,9.23
2023-04-09T00:52:11.692Z,8.30
2023-04-09T00:54:40.057Z,13.07
2023-04-09T00:57:08.388Z,10.15
2023-04-09T00:59:36.721Z,9.00
2023-04-09T01:02:05.119Z,8.00
2023-04-09T01:04:33.527Z,9.20
2023-04-09T01:07:06.765Z,9.32
2023-04-09T01:09:40.718Z,8.98
2023-04-09T01:12:14.361Z,8.63
2023-04-09T01:14:46.815Z,8.98
2023-04-09T01:17:20.061Z,7.13
2023-04-09T01:19:55.595Z,9.98
2023-04-09T01:22:34.712Z,8.32
2023-04-09T01:25:10.973Z,9.00
2023-04-09T01:27:48.106Z,9.55
2023-04-09T01:30:18.001Z,8.07
2023-04-09T01:32:46.407Z,10.05
2023-04-09T01:35:14.808Z,7.93
2023-04-09T01:37:43.143Z,8.73
2023-04-09T01:40:12.544Z,9.57
2023-04-09T01:42:41.947Z,7.60
2023-04-09T01:45:11.306Z,7.75
2023-04-09T01:47:41.148Z,8.27
2023-04-09T01:50:10.715Z,9.00
2023-04-09T01:52:39.029Z,8.43
2023-04-09T01:55:09.052Z,9.00
2023-04-09T01:57:40.124Z,9.48
2023-04-09T02:00:10.484Z,7.88
2023-04-09T02:02:43.891Z,7.75
2023-04-09T02:05:12.564Z,7.60
2023-04-09T02:07:43.616Z,9.02
2023-04-09T02:10:12.189Z,10.00
2023-04-09T02:12:42.017Z,8.80
2023-04-09T02:15:10.896Z,7.43
2023-04-09T02:17:40.716Z,10.02
2023-04-09T02:20:10.869Z,6.70
2023-04-09T02:22:40.164Z,7.35
2023-04-09T02:25:09.253Z,10.23
2023-04-09T02:27:37.646Z,10.20
2023-04-09T02:30:10.333Z,8.70
2023-04-09T02:32:40.141Z,8.70
2023-04-09T02:35:09.257Z,7.97
2023-04-09T02:37:37.646Z,8.80
2023-04-09T02:40:07.022Z,7.68
2023-04-09T02:42:35.388Z,8.10
2023-04-09T02:45:03.862Z,10.07
2023-04-09T02:47:32.225Z,9.45
2023-04-09T02:50:01.922Z,8.30
2023-04-09T02:52:30.256Z,7.38
2023-04-09T02:54:58.564Z,7.30
2023-04-09T02:57:27.020Z,7.93
2023-04-09T02:59:55.505Z,8.18
2023-04-09T03:02:24.100Z,8.05
2023-04-09T03:04:53.134Z,9.18
2023-04-09T03:07:23.606Z,8.60
2023-04-09T03:09:51.962Z,11.25
2023-04-09T03:12:20.346Z,7.75
2023-04-09T03:14:48.658Z,8.30
2023-04-09T03:17:17.100Z,8.63
2023-04-09T03:19:45.460Z,8.23
2023-04-09T03:22:13.964Z,10.13
2023-04-09T03:24:43.644Z,7.72
2023-04-09T03:27:11.998Z,8.20
2023-04-09T03:29:40.412Z,8.30
2023-04-09T03:32:08.900Z,9.60
2023-04-09T03:34:37.279Z,8.85
2023-04-09T03:37:05.777Z,9.82
2023-04-09T03:39:34.076Z,9.50
2023-04-09T03:42:03.948Z,9.68
2023-04-09T03:44:32.471Z,6.60
2023-04-09T03:47:00.808Z,8.57
2023-04-09T03:49:29.299Z,9.50
2023-04-09T03:51:57.601Z,8.35
2023-04-09T03:54:26.138Z,8.20
2023-04-09T03:56:54.476Z,9.90
2023-04-09T03:59:24.339Z,9.40
2023-04-09T04:01:52.872Z,8.50
2023-04-09T04:04:23.610Z,8.02
2023-04-09T04:06:52.322Z,9.85
2023-04-09T04:09:20.946Z,11.05
2023-04-09T04:11:49.393Z,9.98
2023-04-09T04:14:17.789Z,8.07
2023-04-09T04:16:47.528Z,7.43
2023-04-09T04:19:16.125Z,8.98
2023-04-09T04:21:44.555Z,10.70
2023-04-09T04:24:13.048Z,10.75
2023-04-09T04:26:41.534Z,9.45
2023-04-09T04:29:09.860Z,10.38
2023-04-09T04:31:38.246Z,8.48
2023-04-09T04:34:08.103Z,8.57
2023-04-09T04:36:36.683Z,9.27
2023-04-09T04:39:05.279Z,9.38
2023-04-09T04:41:33.602Z,7.97
2023-04-09T04:44:01.974Z,8.63
2023-04-09T04:46:30.364Z,9.15
2023-04-09T04:48:58.788Z,11.98
2023-04-09T04:51:28.659Z,8.70
2023-04-09T04:53:57.058Z,9.27
2023-04-09T04:56:25.454Z,8.05
2023-04-09T04:58:54.096Z,9.50
2023-04-09T05:01:22.720Z,9.15
2023-04-09T05:03:51.317Z,8.98
2023-04-09T05:06:19.720Z,10.50
2023-04-09T05:08:49.481Z,9.10
2023-04-09T05:11:17.885Z,10.80
2023-04-09T05:13:46.438Z,10.10
2023-04-09T05:16:18.740Z,10.75
2023-04-09T05:18:47.108Z,11.60
2023-04-09T05:21:15.592Z,10.02
2023-04-09T05:23:43.940Z,10.55
2023-04-09T05:26:13.677Z,10.77
2023-04-09T05:28:41.976Z,10.65
2023-04-09T05:31:13.454Z,9.88
2023-04-09T05:33:42.027Z,10.40
2023-04-09T05:36:10.455Z,11.80
2023-04-09T05:38:38.862Z,9.73
2023-04-09T05:41:07.438Z,11.55
2023-04-09T05:43:37.145Z,11.18
2023-04-09T05:46:05.895Z,11.05
2023-04-09T05:48:37.138Z,11.23
2023-04-09T05:51:05.722Z,11.35
2023-04-09T05:53:34.263Z,11.23
2023-04-09T05:56:02.714Z,13.55
2023-04-09T05:58:31.321Z,9.80
2023-04-09T06:01:01.056Z,9.20
2023-04-09T06:03:29.610Z,9.40
2023-04-09T06:05:58.145Z,9.43
2023-04-09T06:08:26.708Z,10.38
2023-04-09T06:10:55.150Z,13.10
2023-04-09T06:13:23.655Z,13.27
2023-04-09T06:15:52.364Z,11.73
2023-04-09T06:18:22.233Z,13.10
2023-04-09T06:20:50.716Z,11.57
2023-04-09T06:23:19.063Z,10.25
2023-04-09T06:25:47.401Z,9.15
2023-04-09T06:28:15.793Z,8.65
2023-04-09T06:30:44.411Z,10.68
2023-04-09T06:33:12.855Z,10.90
2023-04-09T06:35:42.707Z,9.80
2023-04-09T06:38:11.155Z,10.77
2023-04-09T06:40:39.790Z,10.85
2023-04-09T06:43:08.125Z,10.93
2023-04-09T06:48:07.184Z,13.40
2023-04-09T06:50:35.653Z,11.32
2023-04-09T06:53:05.528Z,10.45
2023-04-09T06:55:33.947Z,13.00
2023-04-09T06:58:02.812Z,11.82
2023-04-09T07:00:31.891Z,12.70
2023-04-09T07:03:00.879Z,10.73
2023-04-09T07:05:29.518Z,11.25
2023-04-09T07:07:57.921Z,12.65
2023-04-09T07:10:27.763Z,9.68
2023-04-09T07:12:56.966Z,10.80
2023-04-09T07:15:25.384Z,10.52
2023-04-09T07:17:53.933Z,11.00
2023-04-09T07:20:22.433Z,10.00
2023-04-09T07:22:50.917Z,10.25
2023-04-09T07:25:19.539Z,10.20
2023-04-09T07:27:49.846Z,13.20
2023-04-09T07:30:18.328Z,11.05
2023-04-09T07:32:47.304Z,10.15
2023-04-09T07:35:15.915Z,12.05
2023-04-09T07:37:44.342Z,11.60
2023-04-09T07:40:13.692Z,10.73
2023-04-09T07:42:42.517Z,10.25
2023-04-09T07:45:12.301Z,11.10
2023-04-09T07:47:42.268Z,12.80
2023-04-09T07:50:11.625Z,12.63
2023-04-09T07:52:40.090Z,11.93
2023-04-09T07:55:09.054Z,12.52
2023-04-09T07:57:37.977Z,9.85
2023-04-09T08:00:08.288Z,13.70
2023-04-09T08:02:38.117Z,14.43
2023-04-09T08:05:08.039Z,9.68
2023-04-09T08:07:36.972Z,11.20
2023-04-09T08:10:06.467Z,11.80
2023-04-09T08:12:35.514Z,9.20
2023-04-09T08:15:04.131Z,10.98
2023-04-09T08:17:32.580Z,11.38
2023-04-09T08:20:02.316Z,12.32
2023-04-09T08:22:30.756Z,9.75
2023-04-09T08:25:01.489Z,10.73
2023-04-09T08:27:31.508Z,12.63
2023-04-09T08:29:59.895Z,10.48
2023-04-09T08:32:28.333Z,12.75
2023-04-09T08:34:57.420Z,12.50
2023-04-09T08:37:27.507Z,11.70
2023-04-09T08:39:56.068Z,11.57
2023-04-09T08:42:24.538Z,12.48
2023-04-09T08:44:52.916Z,13.85
2023-04-09T08:47:21.818Z,11.15
2023-04-09T08:49:50.370Z,11.07
2023-04-09T08:52:22.051Z,10.30
2023-04-09T08:54:52.196Z,12.73
2023-04-09T08:57:20.758Z,12.73
2023-04-09T08:59:49.265Z,13.48
2023-04-09T09:02:17.665Z,11.63
2023-04-09T09:04:47.376Z,13.32
2023-04-09T09:07:16.173Z,12.35
2023-04-09T09:09:56.344Z,12.77
2023-04-09T09:12:38.261Z,13.35
2023-04-09T09:15:26.251Z,11.95
2023-04-09T09:17:57.036Z,12.20
2023-04-09T09:20:25.576Z,12.18
2023-04-09T09:22:57.225Z,13.25
2023-04-09T09:25:26.989Z,12.38
2023-04-09T09:27:55.862Z,11.98
2023-04-09T09:30:25.823Z,11.65
2023-04-09T09:32:55.166Z,13.05
2023-04-09T09:35:23.839Z,11.75
2023-04-09T09:38:04.391Z,13.63
2023-04-09T09:40:34.152Z,13.32
2023-04-09T09:43:02.511Z,11.85
2023-04-09T09:45:30.861Z,13.93
2023-04-09T09:47:59.338Z,12.18
2023-04-09T09:50:28.654Z,12.80
2023-04-09T09:53:03.230Z,16.00
2023-04-09T09:55:34.443Z,14.77
2023-04-09T09:58:04.933Z,13.23
2023-04-09T10:00:34.056Z,12.70
2023-04-09T10:03:12.090Z,12.43
2023-04-09T10:05:40.744Z,14.35
2023-04-09T10:08:09.153Z,12.68
2023-04-09T10:10:39.526Z,12.60
2023-04-09T10:13:09.533Z,12.30
2023-04-09T10:15:38.443Z,11.27
2023-04-09T10:18:06.881Z,12.73
2023-04-09T10:20:41.140Z,13.80
2023-04-09T10:23:16.471Z,13.50
2023-04-09T10:25:46.498Z,13.57
2023-04-09T10:28:18.000Z,11.93
2023-04-09T10:30:46.462Z,14.38
2023-04-09T10:33:16.756Z,13.32
2023-04-09T10:35:47.816Z,12.50
2023-04-09T10:38:16.442Z,13.20
2023-04-09T10:40:49.681Z,11.95
2023-04-09T10:43:20.038Z,12.52
2023-04-09T10:45:53.254Z,11.75
2023-04-09T10:48:22.032Z,13.13
2023-04-09T10:50:51.864Z,12.48
2023-04-09T10:53:24.171Z,13.43
2023-04-09T10:55:54.618Z,15.45
2023-04-09T10:58:23.061Z,15.07
2023-04-09T11:00:52.755Z,13.45
2023-04-09T11:03:27.374Z,13.30
2023-04-09T11:06:03.359Z,11.52
2023-04-09T11:08:32.729Z,12.57
2023-04-09T11:11:02.565Z,11.45
2023-04-09T11:13:32.369Z,13.55
2023-04-09T11:16:01.540Z,13.63
2023-04-09T11:18:31.088Z,12.00
2023-04-09T11:21:00.207Z,11.35
2023-04-09T11:23:28.759Z,12.30
2023-04-09T11:25:57.223Z,11.38
2023-04-09T11:28:28.051Z,11.68
2023-04-09T11:30:56.335Z,12.20
2023-04-09T11:33:24.897Z,12.68
2023-04-09T11:35:53.326Z,13.48
2023-04-09T11:38:21.783Z,13.75
2023-04-09T11:40:51.419Z,13.95
2023-04-09T11:43:21.238Z,13.02
2023-04-09T11:45:50.991Z,11.77
2023-04-09T11:48:19.506Z,13.77
2023-04-09T11:50:48.314Z,12.23
2023-04-09T11:53:23.940Z,12.93
2023-04-09T11:55:53.033Z,13.80
2023-04-09T11:58:24.845Z,11.77
2023-04-09T12:00:56.843Z,13.13
2023-04-09T12:03:30.884Z,14.07
2023-04-09T12:06:02.682Z,13.82
2023-04-09T12:08:31.355Z,11.48
2023-04-09T12:11:10.150Z,12.40
2023-04-09T12:13:43.211Z,11.68
2023-04-09T12:16:13.342Z,10.55
2023-04-09T12:18:41.787Z,11.50
2023-04-09T12:21:10.445Z,13.52
2023-04-09T12:23:38.889Z,14.30
2023-04-09T12:26:07.268Z,11.98
2023-04-09T12:28:35.728Z,12.50
2023-04-09T12:31:04.136Z,10.85
2023-04-09T12:33:34.084Z,11.88
2023-04-09T12:36:02.665Z,14.32
2023-04-09T12:38:31.304Z,11.38
2023-04-09T12:40:59.777Z,12.18
2023-04-09T12:43:28.240Z,12.82
2023-04-09T12:45:56.780Z,12.63
2023-04-09T12:48:25.457Z,10.55
2023-04-09T12:50:55.239Z,11.88
2023-04-09T12:53:23.690Z,12.40
2023-04-09T12:55:52.310Z,11.25
2023-04-09T12:58:20.805Z,12.50
2023-04-09T13:00:49.832Z,9.70
2023-04-09T13:03:18.359Z,11.38
2023-04-09T13:05:47.395Z,10.43
2023-04-09T13:08:17.477Z,12.30
2023-04-09T13:10:45.868Z,12.88
2023-04-09T13:13:14.340Z,12.38
2023-04-09T13:15:44.974Z,11.65
2023-04-09T13:18:13.850Z,11.88
2023-04-09T13:20:42.334Z,11.95
2023-04-09T13:23:10.640Z,11.52
2023-04-09T13:25:40.450Z,15.27
2023-04-09T13:28:08.928Z,10.70
2023-04-09T13:30:37.371Z,11.82
2023-04-09T13:33:06.097Z,13.45
2023-04-09T13:35:34.589Z,10.25
2023-04-09T13:38:03.021Z,11.63
2023-04-09T13:40:31.340Z,9.43
2023-04-09T13:43:01.127Z,11.60
2023-04-09T13:45:29.518Z,9.45
2023-04-09T13:47:58.537Z,10.30
2023-04-09T13:50:27.118Z,12.52
2023-04-09T13:52:55.573Z,11.52
2023-04-09T13:55:24.134Z,9.68
2023-04-09T13:57:52.631Z,11.57
2023-04-09T14:00:22.572Z,10.82
2023-04-09T14:02:51.328Z,9.80
2023-04-09T14:05:19.932Z,11.73
2023-04-09T14:07:48.409Z,11.23
2023-04-09T14:10:17.208Z,10.55
2023-04-09T14:12:45.676Z,9.70
2023-04-09T14:15:14.161Z,11.05
2023-04-09T14:17:44.944Z,10.70
2023-04-09T14:20:13.789Z,9.95
2023-04-09T14:22:43.150Z,8.95
2023-04-09T14:25:11.851Z,9.30
2023-04-09T14:27:40.231Z,10.13
2023-04-09T14:30:11.505Z,9.85
2023-04-09T14:32:39.959Z,9.57
2023-04-09T14:35:10.759Z,9.38
2023-04-09T14:37:41.032Z,10.88
2023-04-09T14:40:10.530Z,9.95
2023-04-09T14:42:39.008Z,10.55
2023-04-09T14:45:08.413Z,10.85
2023-04-09T14:47:36.920Z,11.95
2023-04-09T14:50:05.706Z,9.45
2023-04-09T14:52:35.484Z,11.68
2023-04-09T14:55:04.234Z,13.02
2023-04-09T14:57:32.972Z,11.43
2023-04-09T15:00:01.412Z,11.52
2023-04-09T15:02:30.069Z,13.30
2023-04-09T15:04:58.677Z,12.70
2023-04-09T15:07:27.202Z,12.60
2023-04-09T15:09:59.546Z,15.30
2023-04-09T15:12:28.627Z,10.88
2023-04-09T15:14:57.445Z,13.27
2023-04-09T15:17:26.282Z,14.50
2023-04-09T15:19:55.042Z,13.68
2023-04-09T15:22:23.419Z,12.40
2023-04-09T15:24:53.127Z,14.75
2023-04-09T15:27:23.029Z,13.82
2023-04-09T15:29:51.933Z,14.93
2023-04-09T15:32:20.852Z,16.65
2023-04-09T15:34:49.494Z,16.50
2023-04-09T15:37:17.984Z,18.70
2023-04-09T15:39:46.464Z,14.77
2023-04-09T15:42:20.266Z,16.63
2023-04-09T15:44:51.029Z,19.35
2023-04-09T15:47:19.391Z,15.63
2023-04-09T15:49:47.919Z,15.13
2023-04-09T15:52:16.256Z,14.93
2023-04-09T15:54:44.688Z,13.93
2023-04-09T15:57:14.433Z,17.77
2023-04-09T15:59:43.106Z,14.07
2023-04-09T16:02:13.030Z,21.50
2023-04-09T16:04:41.713Z,15.82
2023-04-09T16:07:11.105Z,14.57
2023-04-09T16:09:39.638Z,15.50
2023-04-09T16:12:08.589Z,14.52
2023-04-09T16:14:37.012Z,15.38
2023-04-09T16:17:05.441Z,20.08
2023-04-09T16:19:35.747Z,15.70
2023-04-09T16:22:04.400Z,16.13
2023-04-09T16:24:32.799Z,18.20
2023-04-09T16:27:01.559Z,19.15
2023-04-09T16:29:30.752Z,19.63
2023-04-09T16:31:59.164Z,20.27
2023-04-09T16:34:27.588Z,24.60
2023-04-09T16:36:57.472Z,22.58
2023-04-09T16:39:26.107Z,20.90
2023-04-09T16:41:54.488Z,18.95
2023-04-09T16:44:23.131Z,19.20
2023-04-09T16:46:52.027Z,19.42
2023-04-09T16:49:20.459Z,18.08
2023-04-09T16:51:50.836Z,25.17
2023-04-09T16:54:20.853Z,22.35
2023-04-09T16:56:49.572Z,32.42
2023-04-09T16:59:21.050Z,29.45
2023-04-09T17:01:50.002Z,20.38
2023-04-09T17:04:18.548Z,34.17
2023-04-09T17:06:47.204Z,38.20
2023-04-09T17:09:15.668Z,26.75
2023-04-09T17:11:45.706Z,25.60
2023-04-09T17:14:14.153Z,19.75
2023-04-09T17:16:42.771Z,26.05
2023-04-09T17:19:11.329Z,15.93
2023-04-09T17:21:39.682Z,19.42
2023-04-09T17:24:08.913Z,19.65
2023-04-09T17:26:37.336Z,20.52
2023-04-09T17:29:07.083Z,20.98
2023-04-09T17:31:35.528Z,26.73
2023-04-09T17:34:04.062Z,25.02
2023-04-09T17:36:32.769Z,19.77
2023-04-09T17:39:01.815Z,18.10
2023-04-09T17:41:30.709Z,18.33
2023-04-09T17:43:59.092Z,19.73
2023-04-09T17:46:29.562Z,22.83
2023-04-09T17:48:57.999Z,21.25
2023-04-09T17:51:27.039Z,17.80
2023-04-09T17:53:56.225Z,19.65
2023-04-09T17:56:25.294Z,21.88
2023-04-09T17:58:54.045Z,23.17
2023-04-09T18:01:23.015Z,22.60
2023-04-09T18:03:53.165Z,16.02
2023-04-09T18:06:21.726Z,20.42
2023-04-09T18:08:51.038Z,16.95
2023-04-09T18:11:19.607Z,20.20
2023-04-09T18:13:48.009Z,18.17
2023-04-09T18:16:17.720Z,18.08
2023-04-09T18:18:46.245Z,18.98
2023-04-09T18:21:16.570Z,21.27
2023-04-09T18:23:45.046Z,21.50
2023-04-09T18:26:13.487Z,16.20
2023-04-09T18:28:41.979Z,18.60
2023-04-09T18:31:12.663Z,22.75
2023-04-09T18:33:41.179Z,19.92
2023-04-09T18:36:09.942Z,15.45
2023-04-09T18:38:41.257Z,18.67
2023-04-09T18:41:11.308Z,19.67
2023-04-09T18:43:39.916Z,15.98
2023-04-09T18:46:08.455Z,17.20
2023-04-09T18:48:36.830Z,18.80
2023-04-09T18:51:05.932Z,16.02
2023-04-09T18:53:34.477Z,18.05
2023-04-09T18:56:04.405Z,15.77
2023-04-09T18:58:33.817Z,18.50
2023-04-09T19:01:02.632Z,20.45
2023-04-09T19:03:31.362Z,14.32
2023-04-09T19:06:00.249Z,17.58
2023-04-09T19:08:32.436Z,17.58
2023-04-09T19:11:00.887Z,15.38
2023-04-09T19:13:30.742Z,19.75
2023-04-09T19:15:59.183Z,15.80
2023-04-09T19:18:27.771Z,17.40
2023-04-09T19:20:56.190Z,17.15
2023-04-09T19:23:24.570Z,16.40
2023-04-09T19:25:55.205Z,19.60
2023-04-09T19:28:23.883Z,15.30
2023-04-09T19:30:53.810Z,16.67
2023-04-09T19:33:22.313Z,17.17
2023-04-09T19:35:51.096Z,19.38
2023-04-09T19:38:19.810Z,24.15
2023-04-09T19:40:48.213Z,18.70
2023-04-09T19:43:16.704Z,18.88
2023-04-09T19:45:45.124Z,17.95
2023-04-09T19:48:15.015Z,21.65
2023-04-09T19:50:43.809Z,16.65
2023-04-09T19:53:12.148Z,15.30
2023-04-09T19:55:40.730Z,14.63
2023-04-09T19:58:09.113Z,14.60
2023-04-09T20:00:37.521Z,14.20
2023-04-09T20:03:07.227Z,12.20
2023-04-09T20:05:37.181Z,17.95
2023-04-09T20:08:06.171Z,14.88
2023-04-09T20:10:35.436Z,13.68
2023-04-09T20:13:03.926Z,15.02
2023-04-09T20:15:33.080Z,16.58
2023-04-09T20:18:01.542Z,13.75
2023-04-09T20:20:29.968Z,12.18
2023-04-09T20:22:59.681Z,14.52
2023-04-09T20:25:33.954Z,12.68
2023-04-09T20:28:03.496Z,13.43
2023-04-09T20:30:32.590Z,13.95
2023-04-09T20:33:01.454Z,11.85
2023-04-09T20:35:30.005Z,11.77
2023-04-09T20:37:59.925Z,14.45
2023-04-09T20:40:28.336Z,11.65
2023-04-09T20:42:56.754Z,12.23
2023-04-09T20:45:25.192Z,11.75
2023-04-09T20:47:54.363Z,11.65
2023-04-09T20:50:22.777Z,13.55
2023-04-09T20:52:51.346Z,11.75
2023-04-09T20:55:21.309Z,12.57
2023-04-09T20:57:49.654Z,12.38
2023-04-09T21:00:18.058Z,12.98
2023-04-09T21:02:46.640Z,15.55
2023-04-09T21:05:22.856Z,12.60
2023-04-09T21:07:53.117Z,11.63
2023-04-09T21:10:22.984Z,14.27
2023-04-09T21:12:51.409Z,12.88
2023-04-09T21:15:20.022Z,14.48
2023-04-09T21:17:48.455Z,13.77
2023-04-09T21:20:17.511Z,12.45
2023-04-09T21:22:46.066Z,15.13
2023-04-09T21:25:15.687Z,13.38
2023-04-09T21:27:45.907Z,12.95
2023-04-09T21:30:14.296Z,14.93
2023-04-09T21:32:42.869Z,16.20
2023-04-09T21:35:11.402Z,13.65
2023-04-09T21:37:39.815Z,15.35
2023-04-09T21:40:10.069Z,17.52
2023-04-09T21:42:38.469Z,14.25
2023-04-09T21:45:09.495Z,15.48
2023-04-09T21:47:37.951Z,13.10
2023-04-09T21:50:07.629Z,12.93
2023-04-09T21:52:35.993Z,12.30
2023-04-09T21:55:04.375Z,13.07
2023-04-09T21:57:32.730Z,15.10
2023-04-09T22:00:01.252Z,15.38
2023-04-09T22:02:31.372Z,13.27
2023-04-09T22:05:01.120Z,14.50
2023-04-09T22:07:29.779Z,13.90
2023-04-09T22:09:58.712Z,13.68
2023-04-09T22:12:27.124Z,15.55
2023-04-09T22:14:55.562Z,11.18
2023-04-09T22:17:23.930Z,12.30
2023-04-09T22:19:53.696Z,12.93
2023-04-09T22:22:22.118Z,11.73
2023-04-09T22:24:50.717Z,14.35
2023-04-09T22:27:19.094Z,16.17
2023-04-09T22:29:47.459Z,13.10
2023-04-09T22:32:15.956Z,13.23
2023-04-09T22:34:44.301Z,14.18
2023-04-09T22:37:14.047Z,14.90
2023-04-09T22:39:42.496Z,11.93
2023-04-09T22:42:11.694Z,12.38
2023-04-09T22:44:41.529Z,15.93
2023-04-09T22:47:09.983Z,13.85
2023-04-09T22:49:38.862Z,14.75
2023-04-09T22:52:08.184Z,12.65
2023-04-09T22:54:38.219Z,12.52
2023-04-09T22:57:06.585Z,11.48
2023-04-09T23:02:07.052Z,15.55
2023-04-09T23:04:35.876Z,11.20
2023-04-09T23:07:04.280Z,12.45
2023-04-09T23:09:32.590Z,11.75
2023-04-09T23:12:02.808Z,12.60
2023-04-09T23:14:31.225Z,13.43
2023-04-09T23:16:59.637Z,12.18
2023-04-09T23:19:27.952Z,14.80
2023-04-09T23:21:56.329Z,10.70
2023-04-09T23:24:24.820Z,13.20
2023-04-09T23:26:53.186Z,13.60
2023-04-09T23:29:23.174Z,13.95
2023-04-09T23:31:51.523Z,13.93
2023-04-09T23:34:19.951Z,14.07
2023-04-09T23:36:48.310Z,12.45
2023-04-09T23:39:16.625Z,12.50
2023-04-09T23:41:45.066Z,12.15
2023-04-09T23:44:13.430Z,11.65
2023-04-09T23:46:43.301Z,14.02
2023-04-09T23:49:11.669Z,12.48
2023-04-09T23:51:40.038Z,12.55
2023-04-09T23:54:08.429Z,12.00
2023-04-09T23:56:37.578Z,12.38
2023-04-09T23:59:06.499Z,12.60
